Konstanz, Germany

11:51 PM CEST am 28. April 2017 (GMT +0200)
Ernatsreute | | Change Station

Höhe 1742 ft 47.81 °N, 9.22 °E | Updated 28 seconds ago

Teils Wolkig
Teils Wolkig
33.8 °F
gefühlte 34 °F
N
0.0
Wind Wechselnd Wind aus West
Gusts 0.0 mph

Heute
Max. -- | schwach -- °F
--% Regenrisiko
Gestern
Max. -- | schwach -- °F
Precip. -- inch
Druck 30.04 inch
Sichtweite 6.2 Meilen
Wolken Wolkig 8000 ft
Windchill 34 °F
Taupunkt 32 °F
Feuchtigkeit 93%
Regen 0.30 inch
Schneehöhe Nicht verfügbar..
6:10 AM 8:31 PM
Erstes Viertel, 9% visible
METAR ETHL 282120Z 23005KT 9999 BKN080 02/01 Q1017 BLU
Druck 30.04 inch
Sichtweite 6.2 Meilen
Wolken Wolkig 8000 ft
Windchill 34 °F
Taupunkt 32 °F
Feuchtigkeit 93%
Regen 0.30 inch
Schneehöhe Nicht verfügbar..
6:10 AM 8:31 PM
Erstes Viertel, 9% visible
METAR ETHL 282120Z 23005KT 9999 BKN080 02/01 Q1017 BLU

Get Severe Weather Alerts

Thanks for signing up!

Be on the lookout for a verification email in your inbox.

You'll start receiving the daily forecast at 8 AM.

×

10-Day Weather Forecast

×

Almanac

Astronomie

Apr. 28, 2017 Aufgang Untergang
Genaue Zeit
Bürgerliche Dämmerung
Nautische Dämmerung
Astronomische Dämmerung
Mond
Länge des sichtbaren Lichts
Tageslänge
Tomorrow will be .
, % of the Moon is Illuminated

Heutige Rekorde

Country Highs Country Lows

Community

WunderPhotos

WunderBlog® & News

Nearby

Luftqualität

  Luftqualität LQ Index Schadstoff
Not available.

Schneehöhe

Station Depth Höhe

Erdbebenaktivität

Stadt Distance Mag. Time & Date
Minimum magnitude displayed is 2.5.

küstennahe Wassertemperaturen

Ort Temperatur

Stations

Wetterstationen in der Umgebung

Stationsstandort Temp. Windchill Taupunkt Feuchtigkeit Wind Precip. Höhe Aktualisiert Art